PWSweather.com
Personal Weather Stations
Station Observations
URBANDALE
Westwind Acres And Meredith Hills, Urbandale, IA 50322

Westwind Acres And Meredith HillsUrbandale, IA 50322

Lat: 41.643, Lon: -93.709

Elevation: 928

Station Type:

http://urbandaleweather.com

High Low Average
Temperature 30.0°F-1.1°F 7.0°F-13.9°F 19.1°F-7.2°F
Dew Point 28.9°F-1.7°F 1.2°F-17.1°F 16.2°F-8.8°F
Winds 6.0 mph -9.7 mph - Calm Calm 2.5 mph 4.0 mph
Wind Gusts 15.0 mph24.1 mph 0.9 mph1.4 mph 7.5 mph12.1 mph
Humidity 96% 77% 89%
Pressure 30.65 in1037.90 in 29.80 in1009.10 in -
Precipitation 0.00 in0.00 in - -
Hour Temp Dew Point Humidity Winds Wind Gusts Pressure Precip Precip Rate Daily Precip Total
12:01 AM 7.0°F-13.9°C 1.2°F-17.1°C 77% Calm Calm 2.0 mph3.2 kmh 30.65 in1037.9 mb 0.00 in0.0 mm 0.00 in0.0 mm 0.00 in0.0 mm
12:06 AM 7.0°F-13.9°C 1.2°F-17.1°C 77% 0.9 mph ESE1.4 kmh ESE 6.0 mph9.7 kmh 30.65 in1037.9 mb 0.00 in0.0 mm 0.00 in0.0 mm 0.00 in0.0 mm
12:11 AM 7.2°F-13.8°C 1.8°F-16.8°C 78% 0.9 mph SE1.4 kmh SE 2.0 mph3.2 kmh 30.64 in1037.6 mb 0.00 in0.0 mm 0.00 in0.0 mm 0.00 in0.0 mm
12:16 AM 7.2°F-13.8°C 1.8°F-16.8°C 78% Calm Calm 2.9 mph4.7 kmh 30.64 in1037.6 mb 0.00 in0.0 mm 0.00 in0.0 mm 0.00 in0.0 mm
12:21 AM 7.0°F-13.9°C 1.6°F-16.9°C 78% Calm Calm 2.0 mph3.2 kmh 30.64 in1037.6 mb 0.00 in0.0 mm 0.00 in0.0 mm 0.00 in0.0 mm
12:26 AM 7.0°F-13.9°C 1.6°F-16.9°C 78% Calm Calm 4.0 mph6.4 kmh 30.64 in1037.6 mb 0.00 in0.0 mm 0.00 in0.0 mm 0.00 in0.0 mm
12:31 AM 7.0°F-13.9°C 1.6°F-16.9°C 78% 0.9 mph E1.4 kmh E 2.9 mph4.7 kmh 30.64 in1037.6 mb 0.00 in0.0 mm 0.00 in0.0 mm 0.00 in0.0 mm
12:36 AM 7.0°F-13.9°C 1.6°F-16.9°C 78% Calm Calm 2.0 mph3.2 kmh 30.64 in1037.6 mb 0.00 in0.0 mm 0.00 in0.0 mm 0.00 in0.0 mm
12:41 AM 7.0°F-13.9°C 1.6°F-16.9°C 78% Calm Calm 2.0 mph3.2 kmh 30.64 in1037.6 mb 0.00 in0.0 mm 0.00 in0.0 mm 0.00 in0.0 mm
12:46 AM 7.0°F-13.9°C 1.9°F-16.7°C 79% Calm Calm 0.9 mph1.4 kmh 30.63 in1037.3 mb 0.00 in0.0 mm 0.00 in0.0 mm 0.00 in0.0 mm
12:51 AM 7.0°F-13.9°C 1.9°F-16.7°C 79% Calm Calm 0.9 mph1.4 kmh 30.63 in1037.3 mb 0.00 in0.0 mm 0.00 in0.0 mm 0.00 in0.0 mm
12:56 AM 7.0°F-13.9°C 1.9°F-16.7°C 79% Calm Calm 0.9 mph1.4 kmh 30.62 in1036.9 mb 0.00 in0.0 mm 0.00 in0.0 mm 0.00 in0.0 mm
01:01 AM 7.0°F-13.9°C 1.9°F-16.7°C 79% Calm Calm 0.9 mph1.4 kmh 30.62 in1036.9 mb 0.00 in0.0 mm 0.00 in0.0 mm 0.00 in0.0 mm
01:06 AM 7.0°F-13.9°C 1.9°F-16.7°C 79% Calm Calm 0.9 mph1.4 kmh 30.61 in1036.6 mb 0.00 in0.0 mm 0.00 in0.0 mm 0.00 in0.0 mm
01:11 AM 7.0°F-13.9°C 1.9°F-16.7°C 79% Calm Calm 0.9 mph1.4 kmh 30.62 in1036.9 mb 0.00 in0.0 mm 0.00 in0.0 mm 0.00 in0.0 mm
01:16 AM 7.0°F-13.9°C 2.1°F-16.6°C 80% Calm Calm 3.0 mph4.8 kmh 30.61 in1036.6 mb 0.00 in0.0 mm 0.00 in0.0 mm 0.00 in0.0 mm
01:21 AM 7.0°F-13.9°C 2.1°F-16.6°C 80% Calm Calm 2.0 mph3.2 kmh 30.61 in1036.6 mb 0.00 in0.0 mm 0.00 in0.0 mm 0.00 in0.0 mm
01:26 AM 7.0°F-13.9°C 2.1°F-16.6°C 80% Calm Calm 4.0 mph6.4 kmh 30.61 in1036.6 mb 0.00 in0.0 mm 0.00 in0.0 mm 0.00 in0.0 mm
01:31 AM 7.0°F-13.9°C 2.1°F-16.6°C 80% 0.9 mph ESE1.4 kmh ESE 2.9 mph4.7 kmh 30.61 in1036.6 mb 0.00 in0.0 mm 0.00 in0.0 mm 0.00 in0.0 mm
01:36 AM 7.0°F-13.9°C 2.1°F-16.6°C 80% Calm Calm 2.0 mph3.2 kmh 30.61 in1036.6 mb 0.00 in0.0 mm 0.00 in0.0 mm 0.00 in0.0 mm
01:41 AM 7.0°F-13.9°C 2.1°F-16.6°C 80% Calm Calm 3.0 mph4.8 kmh 30.60 in1036.2 mb 0.00 in0.0 mm 0.00 in0.0 mm 0.00 in0.0 mm
01:47 AM 7.0°F-13.9°C 2.5°F-16.4°C 81% 0.9 mph E1.4 kmh E 8.1 mph13.0 kmh 30.59 in1035.9 mb 0.00 in0.0 mm 0.00 in0.0 mm 0.00 in0.0 mm
01:52 AM 7.2°F-13.8°C 2.5°F-16.4°C 81% 0.9 mph SE1.4 kmh SE 4.9 mph7.9 kmh 30.59 in1035.9 mb 0.00 in0.0 mm 0.00 in0.0 mm 0.00 in0.0 mm
01:57 AM 7.2°F-13.8°C 2.5°F-16.4°C 81% 0.9 mph ESE1.4 kmh ESE 4.0 mph6.4 kmh 30.59 in1035.9 mb 0.00 in0.0 mm 0.00 in0.0 mm 0.00 in0.0 mm
02:02 AM 7.2°F-13.8°C 2.5°F-16.4°C 81% 0.9 mph ESE1.4 kmh ESE 2.0 mph3.2 kmh 30.59 in1035.9 mb 0.00 in0.0 mm 0.00 in0.0 mm 0.00 in0.0 mm
02:07 AM 7.2°F-13.8°C 2.5°F-16.4°C 81% Calm Calm 2.9 mph4.7 kmh 30.59 in1035.9 mb 0.00 in0.0 mm 0.00 in0.0 mm 0.00 in0.0 mm
02:12 AM 7.3°F-13.7°C 2.7°F-16.3°C 81% 0.9 mph E1.4 kmh E 5.0 mph8.0 kmh 30.59 in1035.9 mb 0.00 in0.0 mm 0.00 in0.0 mm 0.00 in0.0 mm
02:17 AM 7.3°F-13.7°C 3.0°F-16.1°C 82% Calm Calm 0.9 mph1.4 kmh 30.59 in1035.9 mb 0.00 in0.0 mm 0.00 in0.0 mm 0.00 in0.0 mm
02:22 AM 7.3°F-13.7°C 3.0°F-16.1°C 82% Calm Calm 2.9 mph4.7 kmh 30.58 in1035.6 mb 0.00 in0.0 mm 0.00 in0.0 mm 0.00 in0.0 mm
02:27 AM 7.3°F-13.7°C 3.0°F-16.1°C 82% Calm Calm 2.9 mph4.7 kmh 30.58 in1035.6 mb 0.00 in0.0 mm 0.00 in0.0 mm 0.00 in0.0 mm
02:32 AM 7.5°F-13.6°C 3.2°F-16.0°C 82% 0.9 mph ESE1.4 kmh ESE 4.0 mph6.4 kmh 30.57 in1035.2 mb 0.00 in0.0 mm 0.00 in0.0 mm 0.00 in0.0 mm
02:37 AM 7.5°F-13.6°C 3.2°F-16.0°C 82% 0.9 mph E1.4 kmh E 4.9 mph7.9 kmh 30.56 in1034.9 mb 0.00 in0.0 mm 0.00 in0.0 mm 0.00 in0.0 mm
02:42 AM 7.7°F-13.5°C 3.4°F-15.9°C 82% 2.0 mph ESE3.2 kmh ESE 6.0 mph9.7 kmh 30.56 in1034.9 mb 0.00 in0.0 mm 0.00 in0.0 mm 0.00 in0.0 mm
02:47 AM 7.9°F-13.4°C 3.6°F-15.8°C 82% 0.9 mph SE1.4 kmh SE 6.0 mph9.7 kmh 30.56 in1034.9 mb 0.00 in0.0 mm 0.00 in0.0 mm 0.00 in0.0 mm
02:52 AM 7.9°F-13.4°C 3.6°F-15.8°C 82% 2.0 mph ESE3.2 kmh ESE 6.0 mph9.7 kmh 30.56 in1034.9 mb 0.00 in0.0 mm 0.00 in0.0 mm 0.00 in0.0 mm
02:57 AM 8.1°F-13.3°C 3.7°F-15.7°C 82% 2.0 mph SE3.2 kmh SE 6.0 mph9.7 kmh 30.56 in1034.9 mb 0.00 in0.0 mm 0.00 in0.0 mm 0.00 in0.0 mm
03:02 AM 8.1°F-13.3°C 3.7°F-15.7°C 82% 0.9 mph ESE1.4 kmh ESE 7.0 mph11.3 kmh 30.56 in1034.9 mb 0.00 in0.0 mm 0.00 in0.0 mm 0.00 in0.0 mm
03:07 AM 8.2°F-13.2°C 3.9°F-15.6°C 82% 0.9 mph SE1.4 kmh SE 4.0 mph6.4 kmh 30.56 in1034.9 mb 0.00 in0.0 mm 0.00 in0.0 mm 0.00 in0.0 mm
03:12 AM 8.4°F-13.1°C 4.1°F-15.5°C 82% 0.9 mph SE1.4 kmh SE 4.9 mph7.9 kmh 30.56 in1034.9 mb 0.00 in0.0 mm 0.00 in0.0 mm 0.00 in0.0 mm
03:17 AM 8.6°F-13.0°C 4.5°F-15.3°C 83% 0.9 mph SE1.4 kmh SE 4.9 mph7.9 kmh 30.56 in1034.9 mb 0.00 in0.0 mm 0.00 in0.0 mm 0.00 in0.0 mm
03:22 AM 8.8°F-12.9°C 4.6°F-15.2°C 83% 0.9 mph S1.4 kmh S 4.0 mph6.4 kmh 30.55 in1034.5 mb 0.00 in0.0 mm 0.00 in0.0 mm 0.00 in0.0 mm
03:27 AM 9.0°F-12.8°C 4.8°F-15.1°C 83% 0.9 mph ESE1.4 kmh ESE 4.9 mph7.9 kmh 30.55 in1034.5 mb 0.00 in0.0 mm 0.00 in0.0 mm 0.00 in0.0 mm
03:32 AM 9.1°F-12.7°C 5.0°F-15.0°C 83% 0.9 mph SE1.4 kmh SE 4.9 mph7.9 kmh 30.55 in1034.5 mb 0.00 in0.0 mm 0.00 in0.0 mm 0.00 in0.0 mm
03:37 AM 9.3°F-12.6°C 5.2°F-14.9°C 83% 0.9 mph SE1.4 kmh SE 4.0 mph6.4 kmh 30.55 in1034.5 mb 0.00 in0.0 mm 0.00 in0.0 mm 0.00 in0.0 mm
03:42 AM 9.7°F-12.4°C 5.5°F-14.7°C 83% 0.9 mph SE1.4 kmh SE 4.0 mph6.4 kmh 30.54 in1034.2 mb 0.00 in0.0 mm 0.00 in0.0 mm 0.00 in0.0 mm
03:47 AM 9.9°F-12.3°C 5.7°F-14.6°C 83% 2.0 mph E3.2 kmh E 6.9 mph11.1 kmh 30.54 in1034.2 mb 0.00 in0.0 mm 0.00 in0.0 mm 0.00 in0.0 mm
03:52 AM 10.0°F-12.2°C 5.7°F-14.6°C 82% 0.9 mph SE1.4 kmh SE 4.9 mph7.9 kmh 30.54 in1034.2 mb 0.00 in0.0 mm 0.00 in0.0 mm 0.00 in0.0 mm
03:57 AM 10.2°F-12.1°C 5.9°F-14.5°C 82% 0.9 mph SE1.4 kmh SE 4.9 mph7.9 kmh 30.54 in1034.2 mb 0.00 in0.0 mm 0.00 in0.0 mm 0.00 in0.0 mm
04:02 AM 10.2°F-12.1°C 5.9°F-14.5°C 82% 0.9 mph SE1.4 kmh SE 4.9 mph7.9 kmh 30.53 in1033.9 mb 0.00 in0.0 mm 0.00 in0.0 mm 0.00 in0.0 mm
04:07 AM 10.4°F-12.0°C 6.1°F-14.4°C 82% 0.9 mph E1.4 kmh E 4.9 mph7.9 kmh 30.53 in1033.9 mb 0.00 in0.0 mm 0.00 in0.0 mm 0.00 in0.0 mm
04:12 AM 10.4°F-12.0°C 6.1°F-14.4°C 82% 0.9 mph SE1.4 kmh SE 4.0 mph6.4 kmh 30.52 in1033.5 mb 0.00 in0.0 mm 0.00 in0.0 mm 0.00 in0.0 mm
04:17 AM 10.6°F-11.9°C 6.4°F-14.2°C 83% 0.9 mph E1.4 kmh E 4.9 mph7.9 kmh 30.52 in1033.5 mb 0.00 in0.0 mm 0.00 in0.0 mm 0.00 in0.0 mm
04:22 AM 10.6°F-11.9°C 6.4°F-14.2°C 83% 0.9 mph SE1.4 kmh SE 6.0 mph9.7 kmh 30.52 in1033.5 mb 0.00 in0.0 mm 0.00 in0.0 mm 0.00 in0.0 mm
04:27 AM 10.8°F-11.8°C 6.6°F-14.1°C 83% 2.0 mph E3.2 kmh E 6.0 mph9.7 kmh 30.52 in1033.5 mb 0.00 in0.0 mm 0.00 in0.0 mm 0.00 in0.0 mm
04:32 AM 10.8°F-11.8°C 6.6°F-14.1°C 83% 0.9 mph SE1.4 kmh SE 2.9 mph4.7 kmh 30.52 in1033.5 mb 0.00 in0.0 mm 0.00 in0.0 mm 0.00 in0.0 mm
04:37 AM 10.9°F-11.7°C 6.8°F-14.0°C 83% 0.9 mph ESE1.4 kmh ESE 7.0 mph11.3 kmh 30.51 in1033.2 mb 0.00 in0.0 mm 0.00 in0.0 mm 0.00 in0.0 mm
04:42 AM 10.9°F-11.7°C 6.8°F-14.0°C 83% 0.9 mph SE1.4 kmh SE 4.0 mph6.4 kmh 30.51 in1033.2 mb 0.00 in0.0 mm 0.00 in0.0 mm 0.00 in0.0 mm
04:47 AM 11.1°F-11.6°C 7.0°F-13.9°C 83% 2.0 mph SSE3.2 kmh SSE 6.0 mph9.7 kmh 30.51 in1033.2 mb 0.00 in0.0 mm 0.00 in0.0 mm 0.00 in0.0 mm
04:52 AM 11.1°F-11.6°C 7.0°F-13.9°C 83% 0.9 mph ESE1.4 kmh ESE 0.9 mph1.4 kmh 30.51 in1033.2 mb 0.00 in0.0 mm 0.00 in0.0 mm 0.00 in0.0 mm
04:57 AM 11.1°F-11.6°C 7.0°F-13.9°C 83% Calm Calm 5.0 mph8.0 kmh 30.51 in1033.2 mb 0.00 in0.0 mm 0.00 in0.0 mm 0.00 in0.0 mm
05:02 AM 11.3°F-11.5°C 7.2°F-13.8°C 83% Calm Calm 4.0 mph6.4 kmh 30.51 in1033.2 mb 0.00 in0.0 mm 0.00 in0.0 mm 0.00 in0.0 mm
05:07 AM 11.5°F-11.4°C 7.3°F-13.7°C 83% 0.9 mph SE1.4 kmh SE 4.0 mph6.4 kmh 30.51 in1033.2 mb 0.00 in0.0 mm 0.00 in0.0 mm 0.00 in0.0 mm
05:12 AM 11.5°F-11.4°C 7.5°F-13.6°C 84% 0.9 mph SE1.4 kmh SE 4.9 mph7.9 kmh 30.51 in1033.2 mb 0.00 in0.0 mm 0.00 in0.0 mm 0.00 in0.0 mm
05:17 AM 11.7°F-11.3°C 7.7°F-13.5°C 84% Calm Calm 4.0 mph6.4 kmh 30.50 in1032.8 mb 0.00 in0.0 mm 0.00 in0.0 mm 0.00 in0.0 mm
05:22 AM 11.8°F-11.2°C 7.9°F-13.4°C 84% 0.9 mph E1.4 kmh E 6.0 mph9.7 kmh 30.50 in1032.8 mb 0.00 in0.0 mm 0.00 in0.0 mm 0.00 in0.0 mm
05:27 AM 12.0°F-11.1°C 8.1°F-13.3°C 84% 2.0 mph ESE3.2 kmh ESE 8.1 mph13.0 kmh 30.51 in1033.2 mb 0.00 in0.0 mm 0.00 in0.0 mm 0.00 in0.0 mm
05:32 AM 12.2°F-11.0°C 8.1°F-13.3°C 83% 2.0 mph SE3.2 kmh SE 6.0 mph9.7 kmh 30.51 in1033.2 mb 0.00 in0.0 mm 0.00 in0.0 mm 0.00 in0.0 mm
05:37 AM 12.4°F-10.9°C 8.4°F-13.1°C 84% 0.9 mph ESE1.4 kmh ESE 4.0 mph6.4 kmh 30.50 in1032.8 mb 0.00 in0.0 mm 0.00 in0.0 mm 0.00 in0.0 mm
05:42 AM 12.6°F-10.8°C 8.4°F-13.1°C 83% 0.9 mph SE1.4 kmh SE 6.9 mph11.1 kmh 30.50 in1032.8 mb 0.00 in0.0 mm 0.00 in0.0 mm 0.00 in0.0 mm
05:47 AM 12.6°F-10.8°C 8.6°F-13.0°C 84% 0.9 mph SE1.4 kmh SE 4.9 mph7.9 kmh 30.49 in1032.5 mb 0.00 in0.0 mm 0.00 in0.0 mm 0.00 in0.0 mm
05:52 AM 12.7°F-10.7°C 8.6°F-13.0°C 83% 2.0 mph SE3.2 kmh SE 4.9 mph7.9 kmh 30.49 in1032.5 mb 0.00 in0.0 mm 0.00 in0.0 mm 0.00 in0.0 mm
05:57 AM 12.9°F-10.6°C 8.8°F-12.9°C 83% 2.0 mph SE3.2 kmh SE 6.0 mph9.7 kmh 30.49 in1032.5 mb 0.00 in0.0 mm 0.00 in0.0 mm 0.00 in0.0 mm
06:02 AM 12.9°F-10.6°C 8.8°F-12.9°C 83% 0.9 mph SE1.4 kmh SE 4.9 mph7.9 kmh 30.49 in1032.5 mb 0.00 in0.0 mm 0.00 in0.0 mm 0.00 in0.0 mm
06:07 AM 13.1°F-10.5°C 9.0°F-12.8°C 83% 0.9 mph ESE1.4 kmh ESE 4.0 mph6.4 kmh 30.49 in1032.5 mb 0.00 in0.0 mm 0.00 in0.0 mm 0.00 in0.0 mm
06:12 AM 13.3°F-10.4°C 9.1°F-12.7°C 83% 0.9 mph SE1.4 kmh SE 6.0 mph9.7 kmh 30.48 in1032.2 mb 0.00 in0.0 mm 0.00 in0.0 mm 0.00 in0.0 mm
06:17 AM 13.3°F-10.4°C 9.1°F-12.7°C 83% 2.0 mph SE3.2 kmh SE 8.1 mph13.0 kmh 30.48 in1032.2 mb 0.00 in0.0 mm 0.00 in0.0 mm 0.00 in0.0 mm
06:22 AM 13.5°F-10.3°C 9.3°F-12.6°C 83% 2.0 mph SSE3.2 kmh SSE 6.0 mph9.7 kmh 30.48 in1032.2 mb 0.00 in0.0 mm 0.00 in0.0 mm 0.00 in0.0 mm
06:27 AM 13.5°F-10.3°C 9.3°F-12.6°C 83% 2.0 mph S3.2 kmh S 6.9 mph11.1 kmh 30.49 in1032.5 mb 0.00 in0.0 mm 0.00 in0.0 mm 0.00 in0.0 mm
06:32 AM 13.6°F-10.2°C 9.5°F-12.5°C 83% 2.0 mph SE3.2 kmh SE 4.9 mph7.9 kmh 30.48 in1032.2 mb 0.00 in0.0 mm 0.00 in0.0 mm 0.00 in0.0 mm
06:37 AM 13.6°F-10.2°C 9.5°F-12.5°C 83% 2.0 mph SSE3.2 kmh SSE 6.0 mph9.7 kmh 30.48 in1032.2 mb 0.00 in0.0 mm 0.00 in0.0 mm 0.00 in0.0 mm
06:42 AM 13.6°F-10.2°C 9.5°F-12.5°C 83% 2.0 mph SE3.2 kmh SE 6.0 mph9.7 kmh 30.49 in1032.5 mb 0.00 in0.0 mm 0.00 in0.0 mm 0.00 in0.0 mm
06:47 AM 13.8°F-10.1°C 9.7°F-12.4°C 83% 0.9 mph ESE1.4 kmh ESE 6.0 mph9.7 kmh 30.48 in1032.2 mb 0.00 in0.0 mm 0.00 in0.0 mm 0.00 in0.0 mm
06:52 AM 14.0°F-10.0°C 9.9°F-12.3°C 83% 0.9 mph SE1.4 kmh SE 4.0 mph6.4 kmh 30.48 in1032.2 mb 0.00 in0.0 mm 0.00 in0.0 mm 0.00 in0.0 mm
06:57 AM 14.2°F-9.9°C 10.0°F-12.2°C 83% 0.9 mph SE1.4 kmh SE 4.0 mph6.4 kmh 30.48 in1032.2 mb 0.00 in0.0 mm 0.00 in0.0 mm 0.00 in0.0 mm
07:02 AM 14.2°F-9.9°C 10.0°F-12.2°C 83% 0.9 mph SE1.4 kmh SE 5.0 mph8.0 kmh 30.47 in1031.8 mb 0.00 in0.0 mm 0.00 in0.0 mm 0.00 in0.0 mm
07:07 AM 14.4°F-9.8°C 10.2°F-12.1°C 83% 0.9 mph SE1.4 kmh SE 2.9 mph4.7 kmh 30.47 in1031.8 mb 0.00 in0.0 mm 0.00 in0.0 mm 0.00 in0.0 mm
07:12 AM 14.4°F-9.8°C 10.2°F-12.1°C 83% 0.9 mph SSE1.4 kmh SSE 8.1 mph13.0 kmh 30.47 in1031.8 mb 0.00 in0.0 mm 0.00 in0.0 mm 0.00 in0.0 mm
07:17 AM 14.4°F-9.8°C 10.2°F-12.1°C 83% 2.0 mph SSE3.2 kmh SSE 6.9 mph11.1 kmh 30.47 in1031.8 mb 0.00 in0.0 mm 0.00 in0.0 mm 0.00 in0.0 mm
07:22 AM 14.4°F-9.8°C 10.2°F-12.1°C 83% 2.9 mph ESE4.7 kmh ESE 6.9 mph11.1 kmh 30.47 in1031.8 mb 0.00 in0.0 mm 0.00 in0.0 mm 0.00 in0.0 mm
07:27 AM 14.5°F-9.7°C 10.4°F-12.0°C 83% 2.0 mph ESE3.2 kmh ESE 4.9 mph7.9 kmh 30.46 in1031.5 mb 0.00 in0.0 mm 0.00 in0.0 mm 0.00 in0.0 mm
07:32 AM 14.5°F-9.7°C 10.4°F-12.0°C 83% 2.0 mph SE3.2 kmh SE 6.0 mph9.7 kmh 30.46 in1031.5 mb 0.00 in0.0 mm 0.00 in0.0 mm 0.00 in0.0 mm
07:37 AM 14.5°F-9.7°C 10.4°F-12.0°C 83% 2.9 mph ESE4.7 kmh ESE 7.0 mph11.3 kmh 30.46 in1031.5 mb 0.00 in0.0 mm 0.00 in0.0 mm 0.00 in0.0 mm
07:42 AM 14.7°F-9.6°C 10.6°F-11.9°C 83% 2.9 mph E4.7 kmh E 7.0 mph11.3 kmh 30.46 in1031.5 mb 0.00 in0.0 mm 0.00 in0.0 mm 0.00 in0.0 mm
07:47 AM 14.9°F-9.5°C 10.8°F-11.8°C 83% 2.0 mph ESE3.2 kmh ESE 4.9 mph7.9 kmh 30.46 in1031.5 mb 0.00 in0.0 mm 0.00 in0.0 mm 0.00 in0.0 mm
07:52 AM 15.1°F-9.4°C 10.9°F-11.7°C 83% 2.0 mph SE3.2 kmh SE 7.0 mph11.3 kmh 30.46 in1031.5 mb 0.00 in0.0 mm 0.00 in0.0 mm 0.00 in0.0 mm
07:57 AM 15.1°F-9.4°C 10.9°F-11.7°C 83% 2.0 mph E3.2 kmh E 6.0 mph9.7 kmh 30.46 in1031.5 mb 0.00 in0.0 mm 0.00 in0.0 mm 0.00 in0.0 mm
08:02 AM 15.3°F-9.3°C 11.1°F-11.6°C 83% 2.0 mph SE3.2 kmh SE 6.9 mph11.1 kmh 30.46 in1031.5 mb 0.00 in0.0 mm 0.00 in0.0 mm 0.00 in0.0 mm
08:07 AM 15.3°F-9.3°C 11.1°F-11.6°C 83% 2.0 mph SE3.2 kmh SE 6.0 mph9.7 kmh 30.45 in1031.2 mb 0.00 in0.0 mm 0.00 in0.0 mm 0.00 in0.0 mm
08:12 AM 15.3°F-9.3°C 11.1°F-11.6°C 83% 2.0 mph NE3.2 kmh NE 6.0 mph9.7 kmh 30.45 in1031.2 mb 0.00 in0.0 mm 0.00 in0.0 mm 0.00 in0.0 mm
08:17 AM 15.4°F-9.2°C 11.1°F-11.6°C 83% 0.9 mph ESE1.4 kmh ESE 6.0 mph9.7 kmh 30.45 in1031.2 mb 0.00 in0.0 mm 0.00 in0.0 mm 0.00 in0.0 mm
08:22 AM 15.4°F-9.2°C 11.1°F-11.6°C 83% 2.0 mph NE3.2 kmh NE 8.1 mph13.0 kmh 30.44 in1030.8 mb 0.00 in0.0 mm 0.00 in0.0 mm 0.00 in0.0 mm
08:27 AM 15.6°F-9.1°C 11.3°F-11.5°C 83% 2.9 mph SSE4.7 kmh SSE 6.0 mph9.7 kmh 30.44 in1030.8 mb 0.00 in0.0 mm 0.00 in0.0 mm 0.00 in0.0 mm
08:32 AM 15.6°F-9.1°C 11.3°F-11.5°C 83% 2.0 mph SE3.2 kmh SE 4.0 mph6.4 kmh 30.43 in1030.5 mb 0.00 in0.0 mm 0.00 in0.0 mm 0.00 in0.0 mm
08:37 AM 15.8°F-9.0°C 11.5°F-11.4°C 83% 2.0 mph E3.2 kmh E 7.0 mph11.3 kmh 30.43 in1030.5 mb 0.00 in0.0 mm 0.00 in0.0 mm 0.00 in0.0 mm
08:42 AM 16.0°F-8.9°C 11.7°F-11.3°C 83% 2.9 mph ESE4.7 kmh ESE 8.1 mph13.0 kmh 30.43 in1030.5 mb 0.00 in0.0 mm 0.00 in0.0 mm 0.00 in0.0 mm
08:47 AM 16.0°F-8.9°C 11.7°F-11.3°C 83% 2.9 mph ESE4.7 kmh ESE 9.0 mph14.5 kmh 30.43 in1030.5 mb 0.00 in0.0 mm 0.00 in0.0 mm 0.00 in0.0 mm
08:52 AM 16.0°F-8.9°C 12.0°F-11.1°C 84% 2.9 mph S4.7 kmh S 4.9 mph7.9 kmh 30.42 in1030.1 mb 0.00 in0.0 mm 0.00 in0.0 mm 0.00 in0.0 mm
08:57 AM 16.2°F-8.8°C 12.2°F-11.0°C 84% 2.0 mph SE3.2 kmh SE 6.9 mph11.1 kmh 30.42 in1030.1 mb 0.00 in0.0 mm 0.00 in0.0 mm 0.00 in0.0 mm
09:02 AM 16.3°F-8.7°C 12.4°F-10.9°C 84% 2.0 mph SE3.2 kmh SE 8.0 mph12.9 kmh 30.41 in1029.8 mb 0.00 in0.0 mm 0.00 in0.0 mm 0.00 in0.0 mm
09:07 AM 16.3°F-8.7°C 12.4°F-10.9°C 84% 2.9 mph E4.7 kmh E 11.0 mph17.7 kmh 30.41 in1029.8 mb 0.00 in0.0 mm 0.00 in0.0 mm 0.00 in0.0 mm
09:12 AM 16.5°F-8.6°C 12.6°F-10.8°C 84% 2.9 mph ESE4.7 kmh ESE 6.9 mph11.1 kmh 30.41 in1029.8 mb 0.00 in0.0 mm 0.00 in0.0 mm 0.00 in0.0 mm
09:17 AM 16.7°F-8.5°C 12.7°F-10.7°C 84% 2.0 mph S3.2 kmh S 8.1 mph13.0 kmh 30.41 in1029.8 mb 0.00 in0.0 mm 0.00 in0.0 mm 0.00 in0.0 mm
09:22 AM 16.7°F-8.5°C 12.7°F-10.7°C 84% 2.9 mph SE4.7 kmh SE 4.9 mph7.9 kmh 30.41 in1029.8 mb 0.00 in0.0 mm 0.00 in0.0 mm 0.00 in0.0 mm
09:27 AM 16.9°F-8.4°C 13.1°F-10.5°C 85% 2.9 mph ESE4.7 kmh ESE 8.1 mph13.0 kmh 30.40 in1029.5 mb 0.00 in0.0 mm 0.00 in0.0 mm 0.00 in0.0 mm
09:32 AM 16.9°F-8.4°C 13.1°F-10.5°C 85% 2.0 mph SE3.2 kmh SE 8.1 mph13.0 kmh 30.39 in1029.1 mb 0.00 in0.0 mm 0.00 in0.0 mm 0.00 in0.0 mm
09:37 AM 16.9°F-8.4°C 13.6°F-10.2°C 87% 2.9 mph ESE4.7 kmh ESE 11.0 mph17.7 kmh 30.40 in1029.5 mb 0.00 in0.0 mm 0.00 in0.0 mm 0.00 in0.0 mm
09:42 AM 17.2°F-8.2°C 14.4°F-9.8°C 88% 4.0 mph ESE6.4 kmh ESE 12.1 mph19.5 kmh 30.40 in1029.5 mb 0.00 in0.0 mm 0.00 in0.0 mm 0.00 in0.0 mm
09:47 AM 17.2°F-8.2°C 14.4°F-9.8°C 88% 4.0 mph SE6.4 kmh SE 13.0 mph20.9 kmh 30.38 in1028.8 mb 0.00 in0.0 mm 0.00 in0.0 mm 0.00 in0.0 mm
09:52 AM 17.4°F-8.1°C 14.5°F-9.7°C 88% 2.9 mph E4.7 kmh E 12.1 mph19.5 kmh 30.38 in1028.8 mb 0.00 in0.0 mm 0.00 in0.0 mm 0.00 in0.0 mm
09:57 AM 17.4°F-8.1°C 14.7°F-9.6°C 89% 4.9 mph E7.9 kmh E 13.0 mph20.9 kmh 30.38 in1028.8 mb 0.00 in0.0 mm 0.00 in0.0 mm 0.00 in0.0 mm
10:02 AM 17.4°F-8.1°C 14.7°F-9.6°C 89% 4.9 mph ESE7.9 kmh ESE 10.1 mph16.3 kmh 30.38 in1028.8 mb 0.00 in0.0 mm 0.00 in0.0 mm 0.00 in0.0 mm
10:07 AM 17.4°F-8.1°C 15.1°F-9.4°C 90% 4.0 mph E6.4 kmh E 10.1 mph16.3 kmh 30.38 in1028.8 mb 0.00 in0.0 mm 0.00 in0.0 mm 0.00 in0.0 mm
10:12 AM 17.4°F-8.1°C 15.1°F-9.4°C 90% 2.9 mph SE4.7 kmh SE 8.9 mph14.3 kmh 30.37 in1028.4 mb 0.00 in0.0 mm 0.00 in0.0 mm 0.00 in0.0 mm
10:17 AM 17.4°F-8.1°C 15.3°F-9.3°C 91% 4.0 mph E6.4 kmh E 14.1 mph22.7 kmh 30.37 in1028.4 mb 0.00 in0.0 mm 0.00 in0.0 mm 0.00 in0.0 mm
10:22 AM 17.8°F-7.9°C 15.6°F-9.1°C 91% 4.0 mph ESE6.4 kmh ESE 6.9 mph11.1 kmh 30.37 in1028.4 mb 0.00 in0.0 mm 0.00 in0.0 mm 0.00 in0.0 mm
10:27 AM 17.8°F-7.9°C 15.6°F-9.1°C 91% 2.9 mph SE4.7 kmh SE 11.0 mph17.7 kmh 30.37 in1028.4 mb 0.00 in0.0 mm 0.00 in0.0 mm 0.00 in0.0 mm
10:32 AM 17.8°F-7.9°C 15.6°F-9.1°C 91% 4.0 mph ESE6.4 kmh ESE 8.9 mph14.3 kmh 30.36 in1028.1 mb 0.00 in0.0 mm 0.00 in0.0 mm 0.00 in0.0 mm
10:37 AM 17.8°F-7.9°C 15.6°F-9.1°C 91% 4.0 mph ESE6.4 kmh ESE 8.9 mph14.3 kmh 30.36 in1028.1 mb 0.00 in0.0 mm 0.00 in0.0 mm 0.00 in0.0 mm
10:42 AM 17.8°F-7.9°C 15.6°F-9.1°C 91% 4.0 mph E6.4 kmh E 10.1 mph16.3 kmh 30.36 in1028.1 mb 0.00 in0.0 mm 0.00 in0.0 mm 0.00 in0.0 mm
10:47 AM 18.0°F-7.8°C 16.0°F-8.9°C 92% 4.9 mph E7.9 kmh E 10.1 mph16.3 kmh 30.36 in1028.1 mb 0.00 in0.0 mm 0.00 in0.0 mm 0.00 in0.0 mm
10:53 AM 18.3°F-7.6°C 16.3°F-8.7°C 92% 4.9 mph SE7.9 kmh SE 10.1 mph16.3 kmh 30.36 in1028.1 mb 0.00 in0.0 mm 0.00 in0.0 mm 0.00 in0.0 mm
10:58 AM 18.3°F-7.6°C 16.3°F-8.7°C 92% 4.0 mph ESE6.4 kmh ESE 13.0 mph20.9 kmh 30.35 in1027.8 mb 0.00 in0.0 mm 0.00 in0.0 mm 0.00 in0.0 mm
11:03 AM 18.7°F-7.4°C 16.7°F-8.5°C 92% 4.0 mph SE6.4 kmh SE 13.0 mph20.9 kmh 30.34 in1027.4 mb 0.00 in0.0 mm 0.00 in0.0 mm 0.00 in0.0 mm
11:08 AM 18.7°F-7.4°C 16.7°F-8.5°C 92% 4.9 mph SE7.9 kmh SE 8.9 mph14.3 kmh 30.34 in1027.4 mb 0.00 in0.0 mm 0.00 in0.0 mm 0.00 in0.0 mm
11:13 AM 18.9°F-7.3°C 16.9°F-8.4°C 92% 4.0 mph E6.4 kmh E 10.1 mph16.3 kmh 30.34 in1027.4 mb 0.00 in0.0 mm 0.00 in0.0 mm 0.00 in0.0 mm
11:18 AM 18.9°F-7.3°C 16.9°F-8.4°C 92% 4.0 mph ESE6.4 kmh ESE 11.0 mph17.7 kmh 30.34 in1027.4 mb 0.00 in0.0 mm 0.00 in0.0 mm 0.00 in0.0 mm
11:23 AM 19.0°F-7.2°C 17.1°F-8.3°C 92% 4.0 mph E6.4 kmh E 12.1 mph19.5 kmh 30.33 in1027.1 mb 0.00 in0.0 mm 0.00 in0.0 mm 0.00 in0.0 mm
11:28 AM 19.2°F-7.1°C 17.2°F-8.2°C 92% 4.0 mph E6.4 kmh E 12.1 mph19.5 kmh 30.32 in1026.8 mb 0.00 in0.0 mm 0.00 in0.0 mm 0.00 in0.0 mm
11:33 AM 19.4°F-7.0°C 17.4°F-8.1°C 92% 4.0 mph SE6.4 kmh SE 8.1 mph13.0 kmh 30.32 in1026.8 mb 0.00 in0.0 mm 0.00 in0.0 mm 0.00 in0.0 mm
11:38 AM 19.6°F-6.9°C 17.6°F-8.0°C 92% 4.0 mph SE6.4 kmh SE 10.1 mph16.3 kmh 30.32 in1026.8 mb 0.00 in0.0 mm 0.00 in0.0 mm 0.00 in0.0 mm
11:43 AM 19.6°F-6.9°C 17.6°F-8.0°C 92% 4.0 mph E6.4 kmh E 6.9 mph11.1 kmh 30.31 in1026.4 mb 0.00 in0.0 mm 0.00 in0.0 mm 0.00 in0.0 mm
11:48 AM 19.8°F-6.8°C 17.8°F-7.9°C 92% 2.9 mph S4.7 kmh S 10.1 mph16.3 kmh 30.31 in1026.4 mb 0.00 in0.0 mm 0.00 in0.0 mm 0.00 in0.0 mm
11:53 AM 19.9°F-6.7°C 18.0°F-7.8°C 92% 2.9 mph SE4.7 kmh SE 8.9 mph14.3 kmh 30.31 in1026.4 mb 0.00 in0.0 mm 0.00 in0.0 mm 0.00 in0.0 mm
11:58 AM 19.9°F-6.7°C 18.0°F-7.8°C 92% 2.9 mph SE4.7 kmh SE 8.9 mph14.3 kmh 30.31 in1026.4 mb 0.00 in0.0 mm 0.00 in0.0 mm 0.00 in0.0 mm
12:03 PM 19.9°F-6.7°C 18.0°F-7.8°C 92% 2.9 mph ESE4.7 kmh ESE 6.9 mph11.1 kmh 30.31 in1026.4 mb 0.00 in0.0 mm 0.00 in0.0 mm 0.00 in0.0 mm
12:08 PM 20.1°F-6.6°C 18.1°F-7.7°C 92% 2.9 mph E4.7 kmh E 9.0 mph14.5 kmh 30.30 in1026.1 mb 0.00 in0.0 mm 0.00 in0.0 mm 0.00 in0.0 mm
12:13 PM 20.1°F-6.6°C 18.1°F-7.7°C 92% 2.9 mph SE4.7 kmh SE 10.1 mph16.3 kmh 30.29 in1025.7 mb 0.00 in0.0 mm 0.00 in0.0 mm 0.00 in0.0 mm
12:18 PM 20.3°F-6.5°C 18.3°F-7.6°C 92% 2.9 mph SSE4.7 kmh SSE 10.1 mph16.3 kmh 30.28 in1025.4 mb 0.00 in0.0 mm 0.00 in0.0 mm 0.00 in0.0 mm
12:23 PM 20.5°F-6.4°C 18.5°F-7.5°C 92% 2.9 mph SE4.7 kmh SE 10.1 mph16.3 kmh 30.28 in1025.4 mb 0.00 in0.0 mm 0.00 in0.0 mm 0.00 in0.0 mm
12:28 PM 20.7°F-6.3°C 18.7°F-7.4°C 92% 4.0 mph SE6.4 kmh SE 8.9 mph14.3 kmh 30.27 in1025.1 mb 0.00 in0.0 mm 0.00 in0.0 mm 0.00 in0.0 mm
12:33 PM 20.7°F-6.3°C 18.7°F-7.4°C 92% 4.0 mph SE6.4 kmh SE 12.1 mph19.5 kmh 30.27 in1025.1 mb 0.00 in0.0 mm 0.00 in0.0 mm 0.00 in0.0 mm
12:38 PM 20.8°F-6.2°C 18.9°F-7.3°C 92% 2.9 mph ESE4.7 kmh ESE 8.1 mph13.0 kmh 30.25 in1024.4 mb 0.00 in0.0 mm 0.00 in0.0 mm 0.00 in0.0 mm
12:43 PM 20.8°F-6.2°C 18.9°F-7.3°C 92% 2.9 mph E4.7 kmh E 10.1 mph16.3 kmh 30.25 in1024.4 mb 0.00 in0.0 mm 0.00 in0.0 mm 0.00 in0.0 mm
12:48 PM 20.8°F-6.2°C 18.9°F-7.3°C 92% 4.0 mph SE6.4 kmh SE 11.0 mph17.7 kmh 30.24 in1024.0 mb 0.00 in0.0 mm 0.00 in0.0 mm 0.00 in0.0 mm
12:53 PM 20.8°F-6.2°C 18.9°F-7.3°C 92% 2.9 mph ESE4.7 kmh ESE 8.1 mph13.0 kmh 30.23 in1023.7 mb 0.00 in0.0 mm 0.00 in0.0 mm 0.00 in0.0 mm
12:58 PM 20.8°F-6.2°C 18.9°F-7.3°C 92% 4.0 mph E6.4 kmh E 11.0 mph17.7 kmh 30.22 in1023.4 mb 0.00 in0.0 mm 0.00 in0.0 mm 0.00 in0.0 mm
01:03 PM 21.0°F-6.1°C 19.0°F-7.2°C 92% 2.9 mph ESE4.7 kmh ESE 8.9 mph14.3 kmh 30.22 in1023.4 mb 0.00 in0.0 mm 0.00 in0.0 mm 0.00 in0.0 mm
01:08 PM 21.0°F-6.1°C 19.0°F-7.2°C 92% 2.9 mph ESE4.7 kmh ESE 8.9 mph14.3 kmh 30.21 in1023.0 mb 0.00 in0.0 mm 0.00 in0.0 mm 0.00 in0.0 mm
01:13 PM 21.0°F-6.1°C 19.0°F-7.2°C 92% 4.0 mph SE6.4 kmh SE 11.0 mph17.7 kmh 30.20 in1022.7 mb 0.00 in0.0 mm 0.00 in0.0 mm 0.00 in0.0 mm
01:18 PM 21.2°F-6.0°C 19.2°F-7.1°C 92% 4.0 mph E6.4 kmh E 12.1 mph19.5 kmh 30.19 in1022.4 mb 0.00 in0.0 mm 0.00 in0.0 mm 0.00 in0.0 mm
01:23 PM 21.4°F-5.9°C 19.4°F-7.0°C 92% 4.0 mph SE6.4 kmh SE 13.0 mph20.9 kmh 30.19 in1022.4 mb 0.00 in0.0 mm 0.00 in0.0 mm 0.00 in0.0 mm
01:28 PM 21.4°F-5.9°C 19.4°F-7.0°C 92% 4.9 mph SE7.9 kmh SE 13.0 mph20.9 kmh 30.18 in1022.0 mb 0.00 in0.0 mm 0.00 in0.0 mm 0.00 in0.0 mm
01:33 PM 21.4°F-5.9°C 19.4°F-7.0°C 92% 4.9 mph E7.9 kmh E 14.1 mph22.7 kmh 30.18 in1022.0 mb 0.00 in0.0 mm 0.00 in0.0 mm 0.00 in0.0 mm
01:38 PM 21.6°F-5.8°C 19.6°F-6.9°C 92% 4.9 mph SE7.9 kmh SE 14.1 mph22.7 kmh 30.18 in1022.0 mb 0.00 in0.0 mm 0.00 in0.0 mm 0.00 in0.0 mm
01:43 PM 21.6°F-5.8°C 19.6°F-6.9°C 92% 4.0 mph E6.4 kmh E 10.1 mph16.3 kmh 30.17 in1021.7 mb 0.00 in0.0 mm 0.00 in0.0 mm 0.00 in0.0 mm
01:48 PM 21.7°F-5.7°C 19.8°F-6.8°C 92% 4.0 mph SE6.4 kmh SE 11.0 mph17.7 kmh 30.17 in1021.7 mb 0.00 in0.0 mm 0.00 in0.0 mm 0.00 in0.0 mm
01:53 PM 21.7°F-5.7°C 19.8°F-6.8°C 92% 4.9 mph SSE7.9 kmh SSE 13.0 mph20.9 kmh 30.16 in1021.3 mb 0.00 in0.0 mm 0.00 in0.0 mm 0.00 in0.0 mm
01:58 PM 21.7°F-5.7°C 19.8°F-6.8°C 92% 4.9 mph ESE7.9 kmh ESE 11.0 mph17.7 kmh 30.15 in1021.0 mb 0.00 in0.0 mm 0.00 in0.0 mm 0.00 in0.0 mm
02:03 PM 21.9°F-5.6°C 19.9°F-6.7°C 92% 4.9 mph SE7.9 kmh SE 13.0 mph20.9 kmh 30.15 in1021.0 mb 0.00 in0.0 mm 0.00 in0.0 mm 0.00 in0.0 mm
02:08 PM 21.9°F-5.6°C 20.1°F-6.6°C 93% 4.9 mph SE7.9 kmh SE 13.0 mph20.9 kmh 30.15 in1021.0 mb 0.00 in0.0 mm 0.00 in0.0 mm 0.00 in0.0 mm
02:13 PM 22.1°F-5.5°C 20.3°F-6.5°C 93% 2.9 mph ESE4.7 kmh ESE 6.9 mph11.1 kmh 30.15 in1021.0 mb 0.00 in0.0 mm 0.00 in0.0 mm 0.00 in0.0 mm
02:18 PM 22.1°F-5.5°C 20.3°F-6.5°C 93% 2.9 mph SSE4.7 kmh SSE 10.0 mph16.1 kmh 30.14 in1020.7 mb 0.00 in0.0 mm 0.00 in0.0 mm 0.00 in0.0 mm
02:23 PM 22.3°F-5.4°C 20.5°F-6.4°C 93% 4.0 mph SSE6.4 kmh SSE 11.0 mph17.7 kmh 30.13 in1020.3 mb 0.00 in0.0 mm 0.00 in0.0 mm 0.00 in0.0 mm
02:28 PM 22.3°F-5.4°C 20.5°F-6.4°C 93% 4.0 mph SE6.4 kmh SE 10.1 mph16.3 kmh 30.13 in1020.3 mb 0.00 in0.0 mm 0.00 in0.0 mm 0.00 in0.0 mm
02:33 PM 22.3°F-5.4°C 20.3°F-6.5°C 92% 4.0 mph SE6.4 kmh SE 11.0 mph17.7 kmh 30.12 in1020.0 mb 0.00 in0.0 mm 0.00 in0.0 mm 0.00 in0.0 mm
02:38 PM 22.3°F-5.4°C 20.3°F-6.5°C 92% 6.0 mph SE9.7 kmh SE 10.1 mph16.3 kmh 30.12 in1020.0 mb 0.00 in0.0 mm 0.00 in0.0 mm 0.00 in0.0 mm
02:43 PM 22.5°F-5.3°C 20.7°F-6.3°C 93% 6.0 mph S9.7 kmh S 8.9 mph14.3 kmh 30.10 in1019.3 mb 0.00 in0.0 mm 0.00 in0.0 mm 0.00 in0.0 mm
02:48 PM 22.5°F-5.3°C 20.7°F-6.3°C 93% 4.0 mph ESE6.4 kmh ESE 10.0 mph16.1 kmh 30.10 in1019.3 mb 0.00 in0.0 mm 0.00 in0.0 mm 0.00 in0.0 mm
02:53 PM 22.6°F-5.2°C 20.8°F-6.2°C 93% 4.0 mph SSE6.4 kmh SSE 12.1 mph19.5 kmh 30.10 in1019.3 mb 0.00 in0.0 mm 0.00 in0.0 mm 0.00 in0.0 mm
02:58 PM 22.6°F-5.2°C 20.8°F-6.2°C 93% 4.9 mph SE7.9 kmh SE 10.1 mph16.3 kmh 30.08 in1018.6 mb 0.00 in0.0 mm 0.00 in0.0 mm 0.00 in0.0 mm
03:03 PM 22.8°F-5.1°C 21.0°F-6.1°C 93% 4.0 mph SE6.4 kmh SE 10.1 mph16.3 kmh 30.08 in1018.6 mb 0.00 in0.0 mm 0.00 in0.0 mm 0.00 in0.0 mm
03:08 PM 22.8°F-5.1°C 21.0°F-6.1°C 93% 4.0 mph SSE6.4 kmh SSE 12.1 mph19.5 kmh 30.08 in1018.6 mb 0.00 in0.0 mm 0.00 in0.0 mm 0.00 in0.0 mm
03:13 PM 22.8°F-5.1°C 21.0°F-6.1°C 93% 4.9 mph SE7.9 kmh SE 10.1 mph16.3 kmh 30.08 in1018.6 mb 0.00 in0.0 mm 0.00 in0.0 mm 0.00 in0.0 mm
03:18 PM 23.0°F-5.0°C 21.2°F-6.0°C 93% 4.9 mph SSE7.9 kmh SSE 11.0 mph17.7 kmh 30.09 in1019.0 mb 0.00 in0.0 mm 0.00 in0.0 mm 0.00 in0.0 mm
03:23 PM 23.2°F-4.9°C 21.4°F-5.9°C 93% 4.0 mph ESE6.4 kmh ESE 10.1 mph16.3 kmh 30.08 in1018.6 mb 0.00 in0.0 mm 0.00 in0.0 mm 0.00 in0.0 mm
03:28 PM 23.4°F-4.8°C 21.6°F-5.8°C 93% 2.9 mph SE4.7 kmh SE 8.1 mph13.0 kmh 30.07 in1018.3 mb 0.00 in0.0 mm 0.00 in0.0 mm 0.00 in0.0 mm
03:33 PM 23.4°F-4.8°C 21.6°F-5.8°C 93% 4.0 mph SSE6.4 kmh SSE 10.1 mph16.3 kmh 30.07 in1018.3 mb 0.00 in0.0 mm 0.00 in0.0 mm 0.00 in0.0 mm
03:38 PM 23.5°F-4.7°C 21.7°F-5.7°C 93% 4.9 mph ESE7.9 kmh ESE 12.1 mph19.5 kmh 30.06 in1017.9 mb 0.00 in0.0 mm 0.00 in0.0 mm 0.00 in0.0 mm
03:43 PM 23.7°F-4.6°C 21.9°F-5.6°C 93% 4.9 mph ESE7.9 kmh ESE 14.1 mph22.7 kmh 30.06 in1017.9 mb 0.00 in0.0 mm 0.00 in0.0 mm 0.00 in0.0 mm
03:48 PM 23.9°F-4.5°C 22.1°F-5.5°C 93% 4.0 mph S6.4 kmh S 10.1 mph16.3 kmh 30.06 in1017.9 mb 0.00 in0.0 mm 0.00 in0.0 mm 0.00 in0.0 mm
03:53 PM 24.1°F-4.4°C 22.3°F-5.4°C 93% 4.9 mph SE7.9 kmh SE 13.0 mph20.9 kmh 30.06 in1017.9 mb 0.00 in0.0 mm 0.00 in0.0 mm 0.00 in0.0 mm
03:58 PM 24.3°F-4.3°C 22.5°F-5.3°C 93% 4.9 mph ESE7.9 kmh ESE 13.0 mph20.9 kmh 30.05 in1017.6 mb 0.00 in0.0 mm 0.00 in0.0 mm 0.00 in0.0 mm
04:03 PM 24.4°F-4.2°C 22.6°F-5.2°C 93% 4.9 mph SE7.9 kmh SE 12.1 mph19.5 kmh 30.04 in1017.3 mb 0.00 in0.0 mm 0.00 in0.0 mm 0.00 in0.0 mm
04:08 PM 24.6°F-4.1°C 22.8°F-5.1°C 93% 4.0 mph E6.4 kmh E 11.0 mph17.7 kmh 30.05 in1017.6 mb 0.00 in0.0 mm 0.00 in0.0 mm 0.00 in0.0 mm
04:13 PM 24.8°F-4.0°C 23.0°F-5.0°C 93% 4.0 mph ESE6.4 kmh ESE 15.0 mph24.1 kmh 30.04 in1017.3 mb 0.00 in0.0 mm 0.00 in0.0 mm 0.00 in0.0 mm
04:18 PM 25.0°F-3.9°C 23.2°F-4.9°C 93% 4.9 mph SE7.9 kmh SE 12.1 mph19.5 kmh 30.04 in1017.3 mb 0.00 in0.0 mm 0.00 in0.0 mm 0.00 in0.0 mm
04:23 PM 25.0°F-3.9°C 23.2°F-4.9°C 93% 4.0 mph SE6.4 kmh SE 8.1 mph13.0 kmh 30.03 in1016.9 mb 0.00 in0.0 mm 0.00 in0.0 mm 0.00 in0.0 mm
04:28 PM 25.2°F-3.8°C 23.4°F-4.8°C 93% 4.0 mph E6.4 kmh E 12.1 mph19.5 kmh 30.02 in1016.6 mb 0.00 in0.0 mm 0.00 in0.0 mm 0.00 in0.0 mm
04:33 PM 25.2°F-3.8°C 23.4°F-4.8°C 93% 4.9 mph SE7.9 kmh SE 12.1 mph19.5 kmh 30.02 in1016.6 mb 0.00 in0.0 mm 0.00 in0.0 mm 0.00 in0.0 mm
04:38 PM 25.2°F-3.8°C 23.4°F-4.8°C 93% 4.9 mph SSE7.9 kmh SSE 11.0 mph17.7 kmh 30.02 in1016.6 mb 0.00 in0.0 mm 0.00 in0.0 mm 0.00 in0.0 mm
04:43 PM 25.3°F-3.7°C 23.5°F-4.7°C 93% 4.9 mph SE7.9 kmh SE 10.1 mph16.3 kmh 30.02 in1016.6 mb 0.00 in0.0 mm 0.00 in0.0 mm 0.00 in0.0 mm
04:48 PM 25.3°F-3.7°C 23.5°F-4.7°C 93% 4.9 mph SSE7.9 kmh SSE 11.0 mph17.7 kmh 30.01 in1016.3 mb 0.00 in0.0 mm 0.00 in0.0 mm 0.00 in0.0 mm
04:53 PM 25.3°F-3.7°C 23.5°F-4.7°C 93% 4.0 mph SE6.4 kmh SE 11.0 mph17.7 kmh 30.01 in1016.3 mb 0.00 in0.0 mm 0.00 in0.0 mm 0.00 in0.0 mm
04:58 PM 25.3°F-3.7°C 23.5°F-4.7°C 93% 4.9 mph SSE7.9 kmh SSE 15.0 mph24.1 kmh 30.00 in1015.9 mb 0.00 in0.0 mm 0.00 in0.0 mm 0.00 in0.0 mm
05:03 PM 25.3°F-3.7°C 23.5°F-4.7°C 93% 4.9 mph SE7.9 kmh SE 11.0 mph17.7 kmh 30.00 in1015.9 mb 0.00 in0.0 mm 0.00 in0.0 mm 0.00 in0.0 mm
05:08 PM 25.3°F-3.7°C 23.4°F-4.8°C 92% 4.9 mph ESE7.9 kmh ESE 14.1 mph22.7 kmh 30.00 in1015.9 mb 0.00 in0.0 mm 0.00 in0.0 mm 0.00 in0.0 mm
05:13 PM 25.3°F-3.7°C 23.4°F-4.8°C 92% 6.0 mph SSE9.7 kmh SSE 15.0 mph24.1 kmh 30.00 in1015.9 mb 0.00 in0.0 mm 0.00 in0.0 mm 0.00 in0.0 mm
05:18 PM 25.3°F-3.7°C 23.4°F-4.8°C 92% 4.9 mph ESE7.9 kmh ESE 10.1 mph16.3 kmh 30.00 in1015.9 mb 0.00 in0.0 mm 0.00 in0.0 mm 0.00 in0.0 mm
05:23 PM 25.3°F-3.7°C 23.4°F-4.8°C 92% 4.0 mph ESE6.4 kmh ESE 11.0 mph17.7 kmh 29.99 in1015.6 mb 0.00 in0.0 mm 0.00 in0.0 mm 0.00 in0.0 mm
05:28 PM 25.5°F-3.6°C 23.5°F-4.7°C 92% 4.0 mph SSE6.4 kmh SSE 13.0 mph20.9 kmh 29.99 in1015.6 mb 0.00 in0.0 mm 0.00 in0.0 mm 0.00 in0.0 mm
05:33 PM 25.5°F-3.6°C 23.5°F-4.7°C 92% 4.9 mph SSE7.9 kmh SSE 11.0 mph17.7 kmh 29.99 in1015.6 mb 0.00 in0.0 mm 0.00 in0.0 mm 0.00 in0.0 mm
05:38 PM 25.5°F-3.6°C 23.5°F-4.7°C 92% 4.9 mph SE7.9 kmh SE 11.0 mph17.7 kmh 29.99 in1015.6 mb 0.00 in0.0 mm 0.00 in0.0 mm 0.00 in0.0 mm
05:43 PM 25.7°F-3.5°C 23.7°F-4.6°C 92% 4.9 mph ESE7.9 kmh ESE 10.1 mph16.3 kmh 29.98 in1015.2 mb 0.00 in0.0 mm 0.00 in0.0 mm 0.00 in0.0 mm
05:48 PM 25.7°F-3.5°C 23.7°F-4.6°C 92% 4.0 mph SSW6.4 kmh SSW 11.0 mph17.7 kmh 29.98 in1015.2 mb 0.00 in0.0 mm 0.00 in0.0 mm 0.00 in0.0 mm
05:53 PM 25.7°F-3.5°C 23.7°F-4.6°C 92% 4.9 mph SE7.9 kmh SE 10.1 mph16.3 kmh 29.97 in1014.9 mb 0.00 in0.0 mm 0.00 in0.0 mm 0.00 in0.0 mm
05:58 PM 25.7°F-3.5°C 23.7°F-4.6°C 92% 4.0 mph SE6.4 kmh SE 10.1 mph16.3 kmh 29.97 in1014.9 mb 0.00 in0.0 mm 0.00 in0.0 mm 0.00 in0.0 mm
06:03 PM 25.7°F-3.5°C 23.7°F-4.6°C 92% 4.0 mph SSE6.4 kmh SSE 14.0 mph22.5 kmh 29.97 in1014.9 mb 0.00 in0.0 mm 0.00 in0.0 mm 0.00 in0.0 mm
06:08 PM 25.9°F-3.4°C 23.9°F-4.5°C 92% 4.0 mph SE6.4 kmh SE 10.1 mph16.3 kmh 29.96 in1014.6 mb 0.00 in0.0 mm 0.00 in0.0 mm 0.00 in0.0 mm
06:13 PM 25.9°F-3.4°C 23.9°F-4.5°C 92% 4.0 mph S6.4 kmh S 10.1 mph16.3 kmh 29.96 in1014.6 mb 0.00 in0.0 mm 0.00 in0.0 mm 0.00 in0.0 mm
06:18 PM 25.9°F-3.4°C 23.9°F-4.5°C 92% 4.0 mph S6.4 kmh S 8.1 mph13.0 kmh 29.96 in1014.6 mb 0.00 in0.0 mm 0.00 in0.0 mm 0.00 in0.0 mm
06:23 PM 26.1°F-3.3°C 24.3°F-4.3°C 93% 4.0 mph SE6.4 kmh SE 11.0 mph17.7 kmh 29.96 in1014.6 mb 0.00 in0.0 mm 0.00 in0.0 mm 0.00 in0.0 mm
06:28 PM 26.1°F-3.3°C 24.3°F-4.3°C 93% 4.0 mph S6.4 kmh S 8.9 mph14.3 kmh 29.96 in1014.6 mb 0.00 in0.0 mm 0.00 in0.0 mm 0.00 in0.0 mm
06:34 PM 26.2°F-3.2°C 24.3°F-4.3°C 92% 4.9 mph SSE7.9 kmh SSE 12.1 mph19.5 kmh 29.96 in1014.6 mb 0.00 in0.0 mm 0.00 in0.0 mm 0.00 in0.0 mm
06:39 PM 26.2°F-3.2°C 24.3°F-4.3°C 92% 4.9 mph ENE7.9 kmh ENE 8.9 mph14.3 kmh 29.95 in1014.2 mb 0.00 in0.0 mm 0.00 in0.0 mm 0.00 in0.0 mm
06:44 PM 26.4°F-3.1°C 24.4°F-4.2°C 92% 4.0 mph SSE6.4 kmh SSE 10.0 mph16.1 kmh 29.95 in1014.2 mb 0.00 in0.0 mm 0.00 in0.0 mm 0.00 in0.0 mm
06:49 PM 26.4°F-3.1°C 24.6°F-4.1°C 93% 2.9 mph SE4.7 kmh SE 6.0 mph9.7 kmh 29.95 in1014.2 mb 0.00 in0.0 mm 0.00 in0.0 mm 0.00 in0.0 mm
06:54 PM 26.6°F-3.0°C 24.8°F-4.0°C 93% 2.9 mph SSE4.7 kmh SSE 8.9 mph14.3 kmh 29.95 in1014.2 mb 0.00 in0.0 mm 0.00 in0.0 mm 0.00 in0.0 mm
06:59 PM 26.8°F-2.9°C 25.0°F-3.9°C 93% 2.9 mph S4.7 kmh S 10.1 mph16.3 kmh 29.94 in1013.9 mb 0.00 in0.0 mm 0.00 in0.0 mm 0.00 in0.0 mm
07:04 PM 26.8°F-2.9°C 25.0°F-3.9°C 93% 2.9 mph SE4.7 kmh SE 10.1 mph16.3 kmh 29.93 in1013.5 mb 0.00 in0.0 mm 0.00 in0.0 mm 0.00 in0.0 mm
07:09 PM 27.0°F-2.8°C 25.2°F-3.8°C 93% 4.0 mph ESE6.4 kmh ESE 11.0 mph17.7 kmh 29.93 in1013.5 mb 0.00 in0.0 mm 0.00 in0.0 mm 0.00 in0.0 mm
07:14 PM 27.1°F-2.7°C 25.3°F-3.7°C 93% 4.0 mph ESE6.4 kmh ESE 13.0 mph20.9 kmh 29.92 in1013.2 mb 0.00 in0.0 mm 0.00 in0.0 mm 0.00 in0.0 mm
07:19 PM 27.1°F-2.7°C 25.3°F-3.7°C 93% 4.9 mph SSE7.9 kmh SSE 13.0 mph20.9 kmh 29.92 in1013.2 mb 0.00 in0.0 mm 0.00 in0.0 mm 0.00 in0.0 mm
07:24 PM 27.1°F-2.7°C 25.3°F-3.7°C 93% 4.0 mph SE6.4 kmh SE 13.0 mph20.9 kmh 29.92 in1013.2 mb 0.00 in0.0 mm 0.00 in0.0 mm 0.00 in0.0 mm
07:29 PM 27.3°F-2.6°C 25.5°F-3.6°C 93% 4.0 mph ESE6.4 kmh ESE 8.9 mph14.3 kmh 29.92 in1013.2 mb 0.00 in0.0 mm 0.00 in0.0 mm 0.00 in0.0 mm
07:34 PM 27.3°F-2.6°C 25.9°F-3.4°C 94% 4.0 mph SSE6.4 kmh SSE 11.0 mph17.7 kmh 29.92 in1013.2 mb 0.00 in0.0 mm 0.00 in0.0 mm 0.00 in0.0 mm
07:39 PM 27.3°F-2.6°C 25.9°F-3.4°C 94% 2.9 mph S4.7 kmh S 8.9 mph14.3 kmh 29.92 in1013.2 mb 0.00 in0.0 mm 0.00 in0.0 mm 0.00 in0.0 mm
07:44 PM 27.3°F-2.6°C 25.9°F-3.4°C 94% 4.0 mph SSE6.4 kmh SSE 10.1 mph16.3 kmh 29.92 in1013.2 mb 0.00 in0.0 mm 0.00 in0.0 mm 0.00 in0.0 mm
07:49 PM 27.3°F-2.6°C 25.9°F-3.4°C 94% 4.0 mph S6.4 kmh S 8.1 mph13.0 kmh 29.91 in1012.9 mb 0.00 in0.0 mm 0.00 in0.0 mm 0.00 in0.0 mm
07:54 PM 27.3°F-2.6°C 25.9°F-3.4°C 94% 2.9 mph SE4.7 kmh SE 10.1 mph16.3 kmh 29.91 in1012.9 mb 0.00 in0.0 mm 0.00 in0.0 mm 0.00 in0.0 mm
07:59 PM 27.3°F-2.6°C 25.9°F-3.4°C 94% 2.9 mph ESE4.7 kmh ESE 6.9 mph11.1 kmh 29.90 in1012.5 mb 0.00 in0.0 mm 0.00 in0.0 mm 0.00 in0.0 mm
08:04 PM 27.3°F-2.6°C 25.9°F-3.4°C 94% 2.9 mph ESE4.7 kmh ESE 8.1 mph13.0 kmh 29.90 in1012.5 mb 0.00 in0.0 mm 0.00 in0.0 mm 0.00 in0.0 mm
08:09 PM 27.5°F-2.5°C 26.1°F-3.3°C 94% 2.9 mph ESE4.7 kmh ESE 8.9 mph14.3 kmh 29.90 in1012.5 mb 0.00 in0.0 mm 0.00 in0.0 mm 0.00 in0.0 mm
08:14 PM 27.5°F-2.5°C 26.1°F-3.3°C 94% 4.0 mph SE6.4 kmh SE 6.0 mph9.7 kmh 29.89 in1012.2 mb 0.00 in0.0 mm 0.00 in0.0 mm 0.00 in0.0 mm
08:19 PM 27.3°F-2.6°C 25.9°F-3.4°C 94% 2.9 mph S4.7 kmh S 9.0 mph14.5 kmh 29.89 in1012.2 mb 0.00 in0.0 mm 0.00 in0.0 mm 0.00 in0.0 mm
08:24 PM 27.5°F-2.5°C 26.1°F-3.3°C 94% 2.9 mph SE4.7 kmh SE 10.1 mph16.3 kmh 29.90 in1012.5 mb 0.00 in0.0 mm 0.00 in0.0 mm 0.00 in0.0 mm
08:29 PM 27.5°F-2.5°C 26.1°F-3.3°C 94% 2.9 mph SE4.7 kmh SE 6.0 mph9.7 kmh 29.90 in1012.5 mb 0.00 in0.0 mm 0.00 in0.0 mm 0.00 in0.0 mm
08:34 PM 27.5°F-2.5°C 26.1°F-3.3°C 94% 2.0 mph SE3.2 kmh SE 4.9 mph7.9 kmh 29.90 in1012.5 mb 0.00 in0.0 mm 0.00 in0.0 mm 0.00 in0.0 mm
08:39 PM 27.7°F-2.4°C 26.2°F-3.2°C 94% 0.9 mph SE1.4 kmh SE 6.0 mph9.7 kmh 29.89 in1012.2 mb 0.00 in0.0 mm 0.00 in0.0 mm 0.00 in0.0 mm
08:44 PM 27.7°F-2.4°C 26.2°F-3.2°C 94% 2.0 mph S3.2 kmh S 6.0 mph9.7 kmh 29.89 in1012.2 mb 0.00 in0.0 mm 0.00 in0.0 mm 0.00 in0.0 mm
08:49 PM 27.7°F-2.4°C 26.2°F-3.2°C 94% 2.0 mph E3.2 kmh E 4.9 mph7.9 kmh 29.89 in1012.2 mb 0.00 in0.0 mm 0.00 in0.0 mm 0.00 in0.0 mm
08:54 PM 27.7°F-2.4°C 26.2°F-3.2°C 94% 2.0 mph SSE3.2 kmh SSE 4.0 mph6.4 kmh 29.89 in1012.2 mb 0.00 in0.0 mm 0.00 in0.0 mm 0.00 in0.0 mm
08:59 PM 27.7°F-2.4°C 26.2°F-3.2°C 94% 2.0 mph SSE3.2 kmh SSE 5.0 mph8.0 kmh 29.88 in1011.9 mb 0.00 in0.0 mm 0.00 in0.0 mm 0.00 in0.0 mm
09:04 PM 27.9°F-2.3°C 26.4°F-3.1°C 94% 2.0 mph SE3.2 kmh SE 6.0 mph9.7 kmh 29.89 in1012.2 mb 0.00 in0.0 mm 0.00 in0.0 mm 0.00 in0.0 mm
09:09 PM 27.9°F-2.3°C 26.6°F-3.0°C 95% 2.0 mph SE3.2 kmh SE 8.1 mph13.0 kmh 29.89 in1012.2 mb 0.00 in0.0 mm 0.00 in0.0 mm 0.00 in0.0 mm
09:14 PM 28.0°F-2.2°C 26.8°F-2.9°C 95% 2.0 mph SSE3.2 kmh SSE 4.9 mph7.9 kmh 29.89 in1012.2 mb 0.00 in0.0 mm 0.00 in0.0 mm 0.00 in0.0 mm
09:19 PM 28.2°F-2.1°C 27.0°F-2.8°C 95% 2.0 mph SE3.2 kmh SE 4.9 mph7.9 kmh 29.88 in1011.9 mb 0.00 in0.0 mm 0.00 in0.0 mm 0.00 in0.0 mm
09:24 PM 28.2°F-2.1°C 27.0°F-2.8°C 95% 2.0 mph ESE3.2 kmh ESE 4.9 mph7.9 kmh 29.88 in1011.9 mb 0.00 in0.0 mm 0.00 in0.0 mm 0.00 in0.0 mm
09:29 PM 28.4°F-2.0°C 27.1°F-2.7°C 95% 2.0 mph S3.2 kmh S 4.9 mph7.9 kmh 29.88 in1011.9 mb 0.00 in0.0 mm 0.00 in0.0 mm 0.00 in0.0 mm
09:34 PM 28.4°F-2.0°C 27.1°F-2.7°C 95% 0.9 mph SE1.4 kmh SE 4.0 mph6.4 kmh 29.87 in1011.5 mb 0.00 in0.0 mm 0.00 in0.0 mm 0.00 in0.0 mm
09:39 PM 28.6°F-1.9°C 27.3°F-2.6°C 95% 2.0 mph SE3.2 kmh SE 6.0 mph9.7 kmh 29.87 in1011.5 mb 0.00 in0.0 mm 0.00 in0.0 mm 0.00 in0.0 mm
09:44 PM 28.6°F-1.9°C 27.3°F-2.6°C 95% 2.0 mph ESE3.2 kmh ESE 6.9 mph11.1 kmh 29.86 in1011.2 mb 0.00 in0.0 mm 0.00 in0.0 mm 0.00 in0.0 mm
09:49 PM 28.6°F-1.9°C 27.3°F-2.6°C 95% 2.0 mph SSE3.2 kmh SSE 6.9 mph11.1 kmh 29.86 in1011.2 mb 0.00 in0.0 mm 0.00 in0.0 mm 0.00 in0.0 mm
09:54 PM 28.8°F-1.8°C 27.5°F-2.5°C 95% 2.0 mph SE3.2 kmh SE 4.9 mph7.9 kmh 29.85 in1010.8 mb 0.00 in0.0 mm 0.00 in0.0 mm 0.00 in0.0 mm
09:59 PM 28.8°F-1.8°C 27.5°F-2.5°C 95% 2.0 mph SSE3.2 kmh SSE 6.0 mph9.7 kmh 29.85 in1010.8 mb 0.00 in0.0 mm 0.00 in0.0 mm 0.00 in0.0 mm
10:04 PM 28.8°F-1.8°C 27.5°F-2.5°C 95% 2.0 mph ESE3.2 kmh ESE 7.0 mph11.3 kmh 29.85 in1010.8 mb 0.00 in0.0 mm 0.00 in0.0 mm 0.00 in0.0 mm
10:09 PM 28.8°F-1.8°C 27.5°F-2.5°C 95% 0.9 mph SE1.4 kmh SE 4.0 mph6.4 kmh 29.84 in1010.5 mb 0.00 in0.0 mm 0.00 in0.0 mm 0.00 in0.0 mm
10:14 PM 28.8°F-1.8°C 27.5°F-2.5°C 95% 2.0 mph SSE3.2 kmh SSE 6.0 mph9.7 kmh 29.84 in1010.5 mb 0.00 in0.0 mm 0.00 in0.0 mm 0.00 in0.0 mm
10:19 PM 28.9°F-1.7°C 27.7°F-2.4°C 95% 2.0 mph SE3.2 kmh SE 4.0 mph6.4 kmh 29.84 in1010.5 mb 0.00 in0.0 mm 0.00 in0.0 mm 0.00 in0.0 mm
10:24 PM 28.9°F-1.7°C 27.7°F-2.4°C 95% 0.9 mph ESE1.4 kmh ESE 6.0 mph9.7 kmh 29.84 in1010.5 mb 0.00 in0.0 mm 0.00 in0.0 mm 0.00 in0.0 mm
10:29 PM 28.9°F-1.7°C 27.7°F-2.4°C 95% 2.0 mph ESE3.2 kmh ESE 4.0 mph6.4 kmh 29.83 in1010.2 mb 0.00 in0.0 mm 0.00 in0.0 mm 0.00 in0.0 mm
10:34 PM 28.9°F-1.7°C 27.7°F-2.4°C 95% 0.9 mph SSE1.4 kmh SSE 4.0 mph6.4 kmh 29.83 in1010.2 mb 0.00 in0.0 mm 0.00 in0.0 mm 0.00 in0.0 mm
10:39 PM 28.9°F-1.7°C 27.7°F-2.4°C 95% 0.9 mph SE1.4 kmh SE 2.0 mph3.2 kmh 29.83 in1010.2 mb 0.00 in0.0 mm 0.00 in0.0 mm 0.00 in0.0 mm
10:44 PM 28.9°F-1.7°C 27.7°F-2.4°C 95% 0.9 mph SE1.4 kmh SE 2.9 mph4.7 kmh 29.83 in1010.2 mb 0.00 in0.0 mm 0.00 in0.0 mm 0.00 in0.0 mm
10:49 PM 29.1°F-1.6°C 27.9°F-2.3°C 95% 0.9 mph SE1.4 kmh SE 6.9 mph11.1 kmh 29.83 in1010.2 mb 0.00 in0.0 mm 0.00 in0.0 mm 0.00 in0.0 mm
10:54 PM 29.1°F-1.6°C 27.9°F-2.3°C 95% 0.9 mph SE1.4 kmh SE 2.0 mph3.2 kmh 29.82 in1009.8 mb 0.00 in0.0 mm 0.00 in0.0 mm 0.00 in0.0 mm
10:59 PM 29.1°F-1.6°C 27.9°F-2.3°C 95% 0.9 mph E1.4 kmh E 6.0 mph9.7 kmh 29.82 in1009.8 mb 0.00 in0.0 mm 0.00 in0.0 mm 0.00 in0.0 mm
11:04 PM 29.3°F-1.5°C 28.0°F-2.2°C 95% 0.9 mph SE1.4 kmh SE 4.9 mph7.9 kmh 29.82 in1009.8 mb 0.00 in0.0 mm 0.00 in0.0 mm 0.00 in0.0 mm
11:09 PM 29.3°F-1.5°C 28.0°F-2.2°C 95% 0.9 mph SE1.4 kmh SE 4.0 mph6.4 kmh 29.81 in1009.5 mb 0.00 in0.0 mm 0.00 in0.0 mm 0.00 in0.0 mm
11:14 PM 29.5°F-1.4°C 28.2°F-2.1°C 95% 2.0 mph ESE3.2 kmh ESE 4.0 mph6.4 kmh 29.81 in1009.5 mb 0.00 in0.0 mm 0.00 in0.0 mm 0.00 in0.0 mm
11:19 PM 29.5°F-1.4°C 28.2°F-2.1°C 95% 0.9 mph SE1.4 kmh SE 8.1 mph13.0 kmh 29.81 in1009.5 mb 0.00 in0.0 mm 0.00 in0.0 mm 0.00 in0.0 mm
11:24 PM 29.5°F-1.4°C 28.2°F-2.1°C 95% 0.9 mph SE1.4 kmh SE 4.0 mph6.4 kmh 29.81 in1009.5 mb 0.00 in0.0 mm 0.00 in0.0 mm 0.00 in0.0 mm
11:29 PM 29.7°F-1.3°C 28.4°F-2.0°C 95% 0.9 mph ESE1.4 kmh ESE 4.0 mph6.4 kmh 29.81 in1009.5 mb 0.00 in0.0 mm 0.00 in0.0 mm 0.00 in0.0 mm
11:34 PM 29.7°F-1.3°C 28.4°F-2.0°C 95% 0.9 mph SE1.4 kmh SE 4.0 mph6.4 kmh 29.80 in1009.1 mb 0.00 in0.0 mm 0.00 in0.0 mm 0.00 in0.0 mm
11:39 PM 29.7°F-1.3°C 28.6°F-1.9°C 96% 0.9 mph SSE1.4 kmh SSE 2.9 mph4.7 kmh 29.81 in1009.5 mb 0.00 in0.0 mm 0.00 in0.0 mm 0.00 in0.0 mm
11:44 PM 29.7°F-1.3°C 28.6°F-1.9°C 96% 0.9 mph SE1.4 kmh SE 4.0 mph6.4 kmh 29.80 in1009.1 mb 0.00 in0.0 mm 0.00 in0.0 mm 0.00 in0.0 mm
11:49 PM 29.8°F-1.2°C 28.8°F-1.8°C 96% 0.9 mph ESE1.4 kmh ESE 2.0 mph3.2 kmh 29.80 in1009.1 mb 0.00 in0.0 mm 0.00 in0.0 mm 0.00 in0.0 mm
11:54 PM 29.8°F-1.2°C 28.8°F-1.8°C 96% Calm Calm 3.0 mph4.8 kmh 29.80 in1009.1 mb 0.00 in0.0 mm 0.00 in0.0 mm 0.00 in0.0 mm
11:59 PM 30.0°F-1.1°C 28.9°F-1.7°C 96% 0.9 mph SE1.4 kmh SE 2.9 mph4.7 kmh 29.80 in1009.1 mb 0.00 in0.0 mm 0.00 in0.0 mm 0.00 in0.0 mm